Time;durP1;ratioP1;P1;durP2;ratioP2;P2;SDS_P1;SDS_P2;PMS_P1;PMS_P2;Temp;Humidity;BMP_temperature;BMP_pressure;BME280_temperature;BME280_humidity;BME280_pressure;Samples;Min_cycle;Max_cycle;Signal;HPM_P1;HPM_P2
2022/12/17 13:07:22;;;;;;;;;69.50;51.75;;;;;3.51;51.92;99299.53;6282591;27;97058;-63
2022/12/17 13:10:30;;;;;;;;;70.00;53.00;;;;;3.59;51.67;99304.00;6285324;27;96304;-66
2022/12/17 13:13:37;;;;;;;;;68.40;51.60;;;;;3.47;51.88;99307.00;6283269;27;96452;-64
2022/12/17 13:16:53;;;;;;;;;71.25;55.25;;;;;3.45;52.22;99309.00;6265075;27;97084;-64
2022/12/17 13:20:16;;;;;;;;;70.00;53.00;;;;;3.54;52.30;99315.16;6283679;27;96286;-63
2022/12/17 13:23:30;;;;;;;;;69.20;53.00;;;;;3.44;52.23;99309.16;6286304;27;96446;-63
2022/12/17 13:26:44;;;;;;;;;68.80;53.00;;;;;3.45;52.72;99318.84;6284089;27;96737;-64
2022/12/17 13:29:48;;;;;;;;;66.40;52.00;;;;;3.41;52.84;99325.50;6285910;27;96311;-63
2022/12/17 13:33:12;;;;;;;;;65.40;50.40;;;;;3.41;52.76;99322.84;6284924;27;96316;-62
2022/12/17 13:36:23;;;;;;;;;64.60;51.00;;;;;3.38;53.25;99331.13;6289200;27;97478;-64
2022/12/17 13:39:36;;;;;;;;;69.20;51.00;;;;;3.39;52.91;99335.47;6284940;27;96501;-65
2022/12/17 13:42:41;;;;;;;;;67.80;52.00;;;;;3.38;52.31;99317.81;6285284;27;96804;-62
2022/12/17 13:45:46;;;;;;;;;70.00;53.00;;;;;3.47;52.43;99346.13;6290675;27;96499;-65
2022/12/17 13:48:55;;;;;;;;;70.00;54.00;;;;;3.45;52.55;99349.00;6305746;27;96544;-63
2022/12/17 13:52:03;;;;;;;;;67.75;52.00;;;;;3.41;52.87;99357.47;6288948;27;96787;-63
2022/12/17 13:55:19;;;;;;;;;70.00;55.00;;;;;3.39;53.12;99362.13;6287491;27;97274;-63
2022/12/17 13:58:26;;;;;;;;;67.75;52.75;;;;;3.18;53.53;99335.94;6287984;27;96889;-63
2022/12/17 14:01:32;;;;;;;;;71.60;53.60;;;;;3.43;53.48;99372.28;6272837;27;96366;-63
2022/12/17 14:04:35;;;;;;;;;68.40;51.00;;;;;3.38;53.41;99385.28;6303172;27;96282;-63
2022/12/17 14:07:40;;;;;;;;;68.00;51.80;;;;;3.43;53.58;99390.97;6287225;27;96431;-64
2022/12/17 14:10:49;;;;;;;;;71.00;52.80;;;;;3.44;53.51;99405.13;6285821;27;96843;-63
2022/12/17 14:13:53;;;;;;;;;72.75;55.00;;;;;3.32;54.02;99395.78;6300512;27;96408;-63
2022/12/17 14:16:59;;;;;;;;;74.60;58.20;;;;;3.30;53.97;99400.44;6287245;27;96412;-63
2022/12/17 14:20:06;;;;;;;;;74.40;58.20;;;;;3.26;54.25;99407.91;6289924;27;96591;-64
2022/12/17 14:23:17;;;;;;;;;73.60;59.80;;;;;3.25;54.37;99402.75;6289263;27;97658;-63
2022/12/17 14:26:21;;;;;;;;;73.00;57.67;;;;;3.25;54.22;99421.41;6287684;27;96466;-63
2022/12/17 14:29:26;;;;;;;;;74.50;60.00;;;;;3.26;54.48;99425.72;6292600;27;96653;-63
2022/12/17 14:32:35;;;;;;;;;72.60;57.00;;;;;3.08;54.97;99425.03;6288588;27;96548;-62
2022/12/17 14:35:40;;;;;;;;;71.40;53.40;;;;;3.17;54.58;99434.69;6293584;27;97060;-63
2022/12/17 14:38:53;;;;;;;;;75.00;61.40;;;;;3.08;55.07;99439.13;6290035;27;96802;-64
2022/12/17 14:42:28;;;;;;;;;75.00;59.00;;;;;3.07;54.99;99434.84;6294160;27;96529;-64
2022/12/17 14:46:18;;;;;;;;;73.00;61.00;;;;;3.10;54.62;99446.97;6290029;27;96708;-63
2022/12/17 14:49:01;;;;;;;;;74.60;59.00;;;;;2.95;54.85;99414.78;6289429;27;96528;-63
2022/12/17 14:52:13;;;;;;;;;73.00;55.50;;;;;3.18;54.73;99447.84;6293515;27;96493;-63
2022/12/17 14:55:36;;;;;;;;;72.00;55.80;;;;;3.02;54.99;99461.94;6295814;27;96830;-64
2022/12/17 14:58:45;;;;;;;;;69.80;55.20;;;;;2.99;54.80;99475.56;6289766;27;97080;-63
2022/12/17 15:01:48;;;;;;;;;68.60;52.20;;;;;2.91;55.49;99466.72;6288225;27;96907;-63
2022/12/17 15:05:02;;;;;;;;;73.00;53.00;;;;;2.99;55.39;99475.56;6289230;27;96270;-62
2022/12/17 15:08:06;;;;;;;;;72.50;55.25;;;;;2.82;55.54;99481.81;6288565;27;97655;-62
2022/12/17 15:11:12;;;;;;;;;72.60;53.00;;;;;2.71;56.01;99487.41;6289620;27;96295;-63
2022/12/17 15:14:15;;;;;;;;;72.20;54.00;;;;;2.74;56.10;99484.41;6289506;27;96274;-62
2022/12/17 15:17:18;;;;;;;;;70.20;55.00;;;;;2.66;56.00;99491.53;6289465;27;96403;-63
2022/12/17 15:20:23;;;;;;;;;72.25;55.00;;;;;2.66;56.47;99487.03;6285474;27;97907;-63
2022/12/17 15:23:26;;;;;;;;;72.60;56.60;;;;;2.68;56.12;99494.88;6296485;27;97447;-64
2022/12/17 15:26:30;;;;;;;;;72.00;55.20;;;;;2.73;56.14;99498.75;6286842;27;96871;-64
2022/12/17 15:29:33;;;;;;;;;72.00;53.00;;;;;2.78;55.76;99495.59;6277286;27;97091;-64
2022/12/17 15:32:36;;;;;;;;;70.00;52.50;;;;;2.90;55.71;99510.31;6289407;27;96491;-64
2022/12/17 15:35:42;;;;;;;;;68.60;52.60;;;;;2.82;55.86;99513.78;6279367;27;96586;-63
2022/12/17 15:38:46;;;;;;;;;71.75;53.00;;;;;2.85;55.84;99517.94;6284671;27;96998;-63
2022/12/17 15:45:11;;;;;;;;;70.75;52.50;;;;;2.71;56.23;99530.00;6286814;27;96283;-63
2022/12/17 15:48:17;;;;;;;;;73.80;56.80;;;;;2.63;56.51;99526.44;6282762;27;96863;-63
2022/12/17 15:51:22;;;;;;;;;72.00;57.00;;;;;2.74;56.25;99540.31;6287568;27;96882;-62
2022/12/17 15:54:25;;;;;;;;;72.80;55.00;;;;;2.74;56.48;99539.50;6285637;27;96366;-63
2022/12/17 15:57:29;;;;;;;;;69.25;54.00;;;;;2.65;56.93;99537.75;6279077;27;97504;-63
2022/12/17 16:00:32;;;;;;;;;74.40;60.00;;;;;2.57;56.58;99527.91;6285092;27;97038;-64
2022/12/17 16:03:36;;;;;;;;;72.80;56.60;;;;;2.72;56.39;99544.16;6286538;27;96837;-63
2022/12/17 16:06:41;;;;;;;;;71.60;53.00;;;;;2.71;56.65;99551.31;6290385;27;96786;-62
2022/12/17 16:09:44;;;;;;;;;73.50;55.50;;;;;2.67;56.83;99549.94;6279817;27;96423;-62
2022/12/17 16:12:48;;;;;;;;;74.40;59.20;;;;;2.61;56.95;99554.06;6278165;27;96504;-63
2022/12/17 16:15:56;;;;;;;;;74.80;57.00;;;;;2.67;56.68;99557.09;6276012;27;96762;-62
2022/12/17 16:19:06;;;;;;;;;70.00;53.00;;;;;2.73;56.79;99564.47;6267844;27;96572;-62
2022/12/17 16:22:10;;;;;;;;;74.40;57.60;;;;;2.72;56.69;99568.94;6279909;27;98100;-62
2022/12/17 16:25:14;;;;;;;;;72.20;54.60;;;;;2.70;56.36;99570.09;6277291;27;96501;-63
2022/12/17 16:28:17;;;;;;;;;74.00;59.50;;;;;2.63;57.02;99574.38;6281407;27;96417;-63
2022/12/17 16:31:20;;;;;;;;;74.40;56.20;;;;;2.61;56.96;99572.69;6282877;27;96943;-63
2022/12/17 16:34:24;;;;;;;;;74.80;57.00;;;;;2.65;56.61;99575.03;6286041;27;96763;-63
2022/12/17 16:37:29;;;;;;;;;74.00;56.60;;;;;2.49;57.45;99586.41;6279891;27;96508;-63
2022/12/17 16:40:32;;;;;;;;;74.40;58.00;;;;;2.52;57.29;99591.41;6286199;27;97382;-62
2022/12/17 16:43:35;;;;;;;;;73.00;57.00;;;;;2.63;56.98;99585.88;6284691;27;96521;-62
2022/12/17 16:46:41;;;;;;;;;75.00;58.25;;;;;2.50;56.81;99585.41;6287570;27;96814;-62
2022/12/17 16:49:44;;;;;;;;;72.00;56.80;;;;;2.52;56.93;99588.75;6287555;27;96356;-63
2022/12/17 16:52:50;;;;;;;;;74.00;60.00;;;;;2.69;57.18;99598.53;6276180;27;96653;-62
2022/12/17 16:55:54;;;;;;;;;73.00;59.00;;;;;2.59;56.85;99587.16;6286833;27;96377;-62
2022/12/17 16:58:57;;;;;;;;;73.00;59.00;;;;;2.60;56.99;99604.78;6282211;27;96612;-63
2022/12/17 17:02:01;;;;;;;;;73.33;58.33;;;;;2.59;57.03;99606.59;6284356;27;97547;-62
2022/12/17 17:05:05;;;;;;;;;76.20;63.20;;;;;2.48;57.24;99608.69;6285999;27;97211;-62
2022/12/17 17:08:10;;;;;;;;;72.60;58.20;;;;;2.43;57.41;99610.97;6287273;27;96550;-63
2022/12/17 17:11:16;;;;;;;;;74.40;59.00;;;;;2.33;57.57;99619.03;6287043;27;96416;-63
2022/12/17 17:14:20;;;;;;;;;75.00;58.00;;;;;2.49;57.22;99632.47;6287578;27;96230;-63
2022/12/17 17:17:23;;;;;;;;;78.20;61.20;;;;;2.45;57.52;99633.75;6283854;27;96497;-63
2022/12/17 17:20:46;;;;;;;;;78.25;64.25;;;;;2.51;57.47;99646.47;6289029;27;98165;-63
2022/12/17 17:23:55;;;;;;;;;79.00;66.80;;;;;2.58;57.07;99634.25;6294218;27;96532;-62
2022/12/17 17:26:59;;;;;;;;;78.00;65.00;;;;;2.56;57.22;99648.66;6288280;27;97060;-62
2022/12/17 17:30:03;;;;;;;;;74.00;58.20;;;;;2.38;57.45;99643.34;6287073;27;96423;-62
2022/12/17 17:33:06;;;;;;;;;79.40;66.20;;;;;2.41;57.80;99660.84;6284797;27;97409;-63
2022/12/17 17:36:13;;;;;;;;;79.00;65.00;;;;;2.36;57.56;99655.97;6302225;27;97624;-63
2022/12/17 17:39:17;;;;;;;;;77.25;65.00;;;;;2.41;57.86;99660.84;6285437;27;97540;-62
2022/12/17 17:42:20;;;;;;;;;79.60;65.20;;;;;2.36;57.68;99669.25;6285635;27;97432;-63
2022/12/17 17:45:24;;;;;;;;;75.75;59.50;;;;;2.41;57.90;99666.16;6270347;27;96633;-63
2022/12/17 17:48:27;;;;;;;;;78.00;61.00;;;;;2.47;57.52;99670.88;6295088;27;96260;-63
2022/12/17 17:51:33;;;;;;;;;78.80;66.00;;;;;2.38;57.56;99679.78;6288967;27;96392;-62
2022/12/17 17:54:57;;;;;;;;;75.00;61.25;;;;;2.41;57.87;99682.13;6290378;27;97548;-61
2022/12/17 17:58:01;;;;;;;;;78.00;63.00;;;;;2.48;57.77;99683.22;6267734;27;97138;-62
2022/12/17 18:01:08;;;;;;;;;74.60;58.60;;;;;2.53;57.51;99694.22;6288570;27;96954;-63
2022/12/17 18:04:14;;;;;;;;;78.80;63.80;;;;;2.54;57.03;99704.72;6275426;27;96281;-61
2022/12/17 18:07:18;;;;;;;;;73.80;60.40;;;;;2.42;57.21;99702.44;6278897;27;96562;-63
2022/12/17 18:10:31;;;;;;;;;79.75;68.00;;;;;2.39;57.55;99703.59;6273330;27;96695;-62
2022/12/17 18:16:56;;;;;;;;;74.20;58.80;;;;;2.29;58.12;99699.31;6285850;27;96556;-62
2022/12/17 18:19:59;;;;;;;;;75.80;59.60;;;;;2.33;57.91;99700.66;6291440;27;96385;-63
2022/12/17 18:23:02;;;;;;;;;76.00;62.50;;;;;2.23;58.11;99708.72;6290748;27;97603;-62
2022/12/17 18:26:10;;;;;;;;;78.00;61.00;;;;;2.20;58.27;99726.81;6298141;27;96701;-62
2022/12/17 18:29:16;;;;;;;;;77.40;61.00;;;;;2.23;58.22;99724.66;6287960;27;96546;-62
2022/12/17 18:32:19;;;;;;;;;76.60;62.60;;;;;2.24;58.18;99731.69;6291172;27;96180;-63
2022/12/17 18:35:23;;;;;;;;;74.00;59.00;;;;;2.22;58.06;99730.97;6291823;27;96355;-62
2022/12/17 18:38:26;;;;;;;;;72.40;56.40;;;;;2.32;58.01;99733.56;6290955;27;96450;-66
2022/12/17 18:44:52;;;;;;;;;72.40;53.00;;;;;2.46;57.98;99749.88;6290098;27;96196;-63
2022/12/17 18:47:55;;;;;;;;;72.00;54.60;;;;;2.58;57.50;99742.53;6290665;27;96322;-63
2022/12/17 18:51:04;;;;;;;;;72.00;54.00;;;;;2.65;56.72;99753.41;6289492;27;96845;-63
2022/12/17 18:54:09;;;;;;;;;69.80;51.80;;;;;2.48;57.23;99760.38;6291153;27;96570;-62
2022/12/17 18:57:14;;;;;;;;;65.60;51.00;;;;;2.59;57.19;99771.66;6289654;27;96869;-63
2022/12/17 19:00:18;;;;;;;;;67.00;51.00;;;;;2.57;56.87;99765.66;6290497;27;96314;-61
2022/12/17 19:03:21;;;;;;;;;64.00;48.40;;;;;2.62;56.33;99773.19;6290429;27;96543;-62
2022/12/17 19:06:25;;;;;;;;;61.00;47.75;;;;;2.59;56.58;99778.81;6290557;27;97754;-62
2022/12/17 19:09:33;;;;;;;;;65.50;50.25;;;;;2.35;56.74;99774.03;6255765;27;99190;-62
2022/12/17 19:12:37;;;;;;;;;59.60;45.00;;;;;2.37;56.94;99780.06;6290842;27;96231;-62
2022/12/17 19:15:41;;;;;;;;;62.00;47.00;;;;;2.52;56.43;99769.75;6288734;27;96251;-63
2022/12/17 19:18:45;;;;;;;;;63.00;46.25;;;;;2.49;56.27;99781.50;6290066;27;97003;-62
2022/12/17 19:21:50;;;;;;;;;67.50;50.00;;;;;2.42;56.52;99788.44;6285585;27;96968;-62
2022/12/17 19:24:54;;;;;;;;;62.67;48.00;;;;;2.48;56.53;99795.00;6289895;27;96778;-61
2022/12/17 19:27:59;;;;;;;;;62.50;48.50;;;;;2.42;56.95;99796.41;6289990;27;96331;-62
2022/12/17 19:31:02;;;;;;;;;62.60;47.60;;;;;2.48;56.53;99813.63;6289596;27;96357;-62
2022/12/17 19:34:09;;;;;;;;;64.50;49.00;;;;;2.51;56.58;99811.50;6289521;27;96356;-64
2022/12/17 19:37:13;;;;;;;;;65.00;48.80;;;;;2.49;57.13;99810.78;6305779;27;96302;-62
2022/12/17 19:40:16;;;;;;;;;66.60;51.00;;;;;2.59;56.38;99810.78;6288828;27;96349;-62
2022/12/17 19:43:21;;;;;;;;;65.60;49.00;;;;;2.49;56.06;99821.44;6287381;27;97214;-63
2022/12/17 19:46:25;;;;;;;;;58.67;45.67;;;;;2.53;55.27;99830.00;6288642;27;99024;-62
2022/12/17 19:49:31;;;;;;;;;56.60;43.80;;;;;2.44;55.10;99829.06;6289334;27;96331;-61
2022/12/17 19:52:37;;;;;;;;;57.40;46.00;;;;;2.43;54.98;99831.84;6287635;27;96920;-62
2022/12/17 19:55:40;;;;;;;;;63.00;47.50;;;;;2.47;55.00;99847.38;6289558;27;96918;-62
2022/12/17 19:58:46;;;;;;;;;59.20;45.00;;;;;2.44;55.35;99847.69;6287655;27;97103;-62
2022/12/17 20:01:50;;;;;;;;;61.60;46.20;;;;;2.45;54.43;99846.69;6287979;27;96318;-63
2022/12/17 20:04:54;;;;;;;;;59.75;45.25;;;;;2.45;54.36;99857.31;6304791;27;96398;-62
2022/12/17 20:07:58;;;;;;;;;62.00;46.00;;;;;2.25;54.73;99854.91;6289372;27;96872;-62
2022/12/17 20:11:03;;;;;;;;;60.40;46.00;;;;;2.32;54.36;99858.66;6288018;27;96620;-63
2022/12/17 20:14:12;;;;;;;;;58.60;45.80;;;;;2.24;54.31;99875.34;6287258;27;96280;-62
2022/12/17 20:17:16;;;;;;;;;58.00;44.00;;;;;2.16;54.59;99883.19;6289214;27;96307;-62
2022/12/17 20:20:19;;;;;;;;;61.00;44.00;;;;;2.05;54.58;99883.38;6288726;27;96354;-62
2022/12/17 20:23:23;;;;;;;;;56.00;44.00;;;;;2.19;54.83;99888.25;6295918;27;96394;-62
2022/12/17 20:26:26;;;;;;;;;62.00;46.60;;;;;2.12;54.77;99887.97;6285268;27;96762;-62
2022/12/17 20:29:31;;;;;;;;;61.60;44.80;;;;;2.00;54.40;99894.44;6282043;27;96476;-63
2022/12/17 20:32:36;;;;;;;;;60.00;46.40;;;;;1.98;54.54;99907.03;6281070;27;96930;-63
2022/12/17 20:35:40;;;;;;;;;60.80;46.00;;;;;2.03;54.66;99915.44;6288395;27;96198;-63
2022/12/17 20:38:44;;;;;;;;;60.20;44.80;;;;;1.96;54.56;99918.78;6290341;27;97149;-63
2022/12/17 20:41:50;;;;;;;;;58.20;44.00;;;;;2.03;54.58;99925.22;6287978;27;96383;-62
2022/12/17 20:44:54;;;;;;;;;60.00;46.00;;;;;2.20;53.91;99931.66;6284309;27;96521;-63
2022/12/17 20:47:58;;;;;;;;;62.00;46.00;;;;;2.06;54.39;99939.06;6285021;27;96498;-62
2022/12/17 20:51:05;;;;;;;;;61.50;47.50;;;;;2.09;54.58;99941.47;6290172;27;96330;-63
2022/12/17 20:54:09;;;;;;;;;65.40;49.80;;;;;2.13;54.39;99953.50;6288587;27;96423;-62
2022/12/17 20:57:13;;;;;;;;;62.00;45.00;;;;;2.21;54.42;99960.75;6287980;27;96229;-62
2022/12/17 21:00:18;;;;;;;;;61.00;45.80;;;;;2.19;53.92;99954.75;6287115;27;96497;-62
2022/12/17 21:03:21;;;;;;;;;62.00;46.20;;;;;2.20;54.05;99963.56;6288057;27;97336;-62
2022/12/17 21:06:27;;;;;;;;;57.00;44.00;;;;;2.13;54.12;99960.63;6303582;27;96072;-62
2022/12/17 21:09:31;;;;;;;;;58.00;45.40;;;;;2.19;54.48;99962.72;6285859;27;97055;-63
2022/12/17 21:15:53;;;;;;;;;61.00;45.33;;;;;2.11;54.25;99959.91;6276763;27;96795;-62
2022/12/17 21:18:59;;;;;;;;;59.60;45.60;;;;;1.97;54.39;99944.41;6286582;27;96322;-62
2022/12/17 21:22:02;;;;;;;;;61.00;47.80;;;;;2.12;54.08;99965.09;6287845;27;96567;-64
2022/12/17 21:25:07;;;;;;;;;60.40;45.40;;;;;2.15;54.05;99969.31;6286533;27;97002;-62
2022/12/17 21:28:10;;;;;;;;;60.00;45.00;;;;;2.12;54.03;99975.75;6286060;27;96820;-62
2022/12/17 21:31:21;;;;;;;;;56.00;44.00;;;;;2.08;53.93;99978.84;6282672;27;96745;-62
2022/12/17 21:34:28;;;;;;;;;56.00;43.00;;;;;1.88;54.33;99982.47;6286644;27;96594;-62
2022/12/17 21:37:31;;;;;;;;;56.00;42.40;;;;;1.76;53.94;99988.91;6286701;27;96537;-63
2022/12/17 21:40:35;;;;;;;;;61.40;46.00;;;;;1.83;54.40;100003.31;6285824;27;96874;-62
2022/12/17 21:43:39;;;;;;;;;54.60;43.60;;;;;1.70;54.01;100009.75;6285700;27;96712;-62
2022/12/17 21:46:44;;;;;;;;;51.00;40.20;;;;;1.73;54.06;100019.28;6286260;27;96353;-62
2022/12/17 21:49:53;;;;;;;;;47.00;39.00;;;;;1.62;54.11;100022.03;6286330;27;96875;-62
2022/12/17 21:52:57;;;;;;;;;48.40;39.40;;;;;1.61;54.47;100023.03;6297757;27;96424;-65
2022/12/17 21:56:06;;;;;;;;;46.60;38.00;;;;;1.66;54.62;100023.47;6279495;27;97596;-65
2022/12/17 21:59:11;;;;;;;;;45.40;38.00;;;;;1.54;54.53;100019.22;6283867;27;96276;-62
2022/12/17 22:02:15;;;;;;;;;49.67;36.67;;;;;1.51;54.38;100033.66;6285815;27;96526;-63
2022/12/17 22:05:19;;;;;;;;;48.50;38.75;;;;;1.48;54.74;100025.94;6286154;27;96249;-62
2022/12/17 22:08:22;;;;;;;;;49.40;39.40;;;;;1.44;54.58;100029.00;6285720;27;96582;-62
2022/12/17 22:11:27;;;;;;;;;47.50;39.00;;;;;1.64;54.31;100049.34;6286451;27;96820;-62
2022/12/17 22:14:30;;;;;;;;;48.00;37.00;;;;;1.78;54.21;100046.28;6283705;27;96809;-62
2022/12/17 22:17:35;;;;;;;;;47.00;35.00;;;;;1.65;54.25;100046.56;6267253;27;96401;-63
2022/12/17 22:20:38;;;;;;;;;50.67;40.00;;;;;1.78;54.18;100053.41;6285357;27;98587;-64
2022/12/17 22:23:44;;;;;;;;;50.00;39.20;;;;;1.67;54.23;100063.19;6286289;27;96638;-62
2022/12/17 22:26:48;;;;;;;;;48.50;38.00;;;;;1.67;54.33;100068.50;6286018;27;96415;-62
2022/12/17 22:33:14;;;;;;;;;50.40;40.60;;;;;1.69;54.69;100066.56;6281980;27;97056;-63
2022/12/17 22:36:38;;;;;;;;;47.00;38.00;;;;;1.83;54.13;100067.97;6283085;27;97612;-64
2022/12/17 22:40:01;;;;;;;;;51.40;39.00;;;;;1.86;53.80;100073.00;6288894;27;96373;-62
2022/12/17 22:43:30;;;;;;;;;51.00;39.60;;;;;1.83;53.65;100075.13;6305488;27;98769;-61
2022/12/17 22:46:53;;;;;;;;;49.00;39.00;;;;;1.91;54.03;100062.81;6291890;27;96669;-62
2022/12/17 22:49:58;;;;;;;;;47.20;37.60;;;;;2.02;53.90;100072.50;6290793;27;96317;-62
2022/12/17 22:53:02;;;;;;;;;50.00;39.00;;;;;1.97;53.36;100074.72;6290498;27;96242;-62
2022/12/17 22:56:07;;;;;;;;;49.20;38.40;;;;;1.95;53.52;100080.19;6288724;27;97079;-63
2022/12/17 22:59:31;;;;;;;;;53.00;41.00;;;;;2.01;53.32;100078.78;6290307;27;96900;-63
2022/12/17 23:02:34;;;;;;;;;46.20;38.00;;;;;1.98;53.34;100084.38;6292341;27;97314;-63
2022/12/17 23:05:39;;;;;;;;;47.00;38.00;;;;;1.94;53.86;100081.16;6289863;27;96386;-62
2022/12/17 23:08:43;;;;;;;;;50.60;39.00;;;;;1.94;53.66;100105.09;6288009;27;96724;-65
2022/12/17 23:11:48;;;;;;;;;47.60;38.00;;;;;1.94;53.64;100105.09;6287891;27;96816;-63
2022/12/17 23:14:51;;;;;;;;;45.60;35.20;;;;;1.98;53.64;100121.63;6288954;27;96771;-63
2022/12/17 23:17:57;;;;;;;;;48.50;38.25;;;;;2.00;53.64;100114.34;6289070;27;96044;-63
2022/12/17 23:21:07;;;;;;;;;51.00;40.60;;;;;1.84;53.77;100108.72;6289046;27;97086;-62
2022/12/17 23:24:11;;;;;;;;;49.00;39.80;;;;;2.02;53.28;100118.53;6291350;27;96860;-65
2022/12/17 23:27:14;;;;;;;;;51.80;40.40;;;;;1.97;53.33;100127.91;6288660;27;96493;-62
2022/12/17 23:30:19;;;;;;;;;46.50;38.00;;;;;1.92;53.44;100120.34;6288641;27;96874;-62
2022/12/17 23:33:22;;;;;;;;;49.80;38.00;;;;;1.91;53.79;100125.78;6292066;27;96317;-61
2022/12/17 23:36:27;;;;;;;;;47.75;38.75;;;;;1.97;53.46;100134.06;6288412;27;96171;-62
2022/12/17 23:39:31;;;;;;;;;52.40;41.80;;;;;2.07;53.50;100136.75;6286521;27;97925;-62
2022/12/17 23:42:34;;;;;;;;;49.00;38.60;;;;;2.16;53.40;100146.56;6288632;27;96378;-62
2022/12/17 23:45:37;;;;;;;;;50.00;39.50;;;;;2.13;52.77;100150.34;6288845;27;96525;-64
2022/12/17 23:48:42;;;;;;;;;49.60;36.80;;;;;2.08;52.79;100157.06;6287302;27;96894;-62
2022/12/17 23:51:49;;;;;;;;;50.00;39.25;;;;;1.98;52.77;100157.03;6271507;27;97470;-62
2022/12/17 23:54:52;;;;;;;;;48.80;37.60;;;;;1.97;52.70;100170.47;6285396;27;96300;-62
2022/12/17 23:57:57;;;;;;;;;46.00;37.50;;;;;1.91;53.26;100179.81;6287673;27;96667;-62
